Aeroporto :
LOGIN :

Iscrizione | Disclaimer

   EN    FR    IT 

 










Sommario :    VFR   VFR Marginale   IFR   IFR Intensivo   IFR Molto Intensivo
Visibilità : 
Base nubi : 
>= 8 km
>= 3000ft
5 / 8 km
1000 / 3000 ft
1500m / 5 km
500 / 1000 ft
800 / 1500m
200 / 500 ft
< 800m
< 200 ft
Simboli :   Temporali  Nebbia  Neve Forte  Precipitazioni Forti  Vento > 20 kt
SIGMETs :   Varie  Temporali  Ghiacco  Turbolenza  Onda orograficha  Ceneri Vulcaniche







- Altitudine del aeroporto : 1906 ft
- Codice IATA : INN


LOWI - Innsbruck

ULTIMO METAR :
  • 261620Z 05006KT 020V080 9999 FEW050 SCT075 08/M04 Q1026 NOSIG

METARs OBSOLETI :
  • 261550Z 05006KT 9999 FEW050 SCT075 08/M04 Q1026 NOSIG
  • 261520Z 06007KT 020V080 9999 FEW050 SCT075 07/M03 Q1026 NOSIG
  • 261450Z 06005KT 020V130 9999 FEW050 BKN075 08/M04 Q1026 NOSIG
  • 261420Z 07007KT 020V120 9999 FEW040 BKN070 08/M04 Q1026 NOSIG
  • 261350Z 15004KT 060V210 9999 FEW040 BKN065 08/M03 Q1026 NOSIG

TAF TAF LOWI
Valido dal 26 a 12 ore il 27 a 12 ore UTC


261115Z 2612/2712 09006KT 9999 SCT030 BKN070 TX08/2613Z TN01/2706Z
PROB40
TEMPO 2612/2619 04015G25KT
TEMPO 2619/2707 4000 -SN BKN013
Nessun NOTAM noto per questo aeroporto.



MetMap, La meteo Aeronautica in un colpo d'occhio ! - Copyright ORBIFLY Dicembre 2007 - Disclaimer

ORBIFLY MET'MAP TEAM :

Programmazione e sviluppo : Alexandra Zaïnal
Concezione e sviluppo : Baudouin d'Aumeries
Co-Programmazione e sviluppo : Marc-Olivier Méhu
Supporto tecnico e logistico : Manuel Goepfert
Aiuto per la traduzione : Arnaldo La Scala

Contatto : metmap@orbifly.com




FONTI E CREDITI :

   NOAA